sensor_id;sensor_type;location;lat;lon;timestamp;P1;durP1;ratioP1;P2;durP2;ratioP2
45402;SDS011;47427;51.976;5.326;2023-11-21T00:00:10;39.13;;;19.13;;
45402;SDS011;47427;51.976;5.326;2023-11-21T00:03:14;46.13;;;18.67;;
45402;SDS011;47427;51.976;5.326;2023-11-21T00:06:17;49.72;;;19.00;;
45402;SDS011;47427;51.976;5.326;2023-11-21T00:09:20;37.22;;;19.67;;
45402;SDS011;47427;51.976;5.326;2023-11-21T00:12:22;36.60;;;16.90;;
45402;SDS011;47427;51.976;5.326;2023-11-21T00:15:26;44.80;;;17.98;;
45402;SDS011;47427;51.976;5.326;2023-11-21T00:18:29;37.75;;;17.50;;
45402;SDS011;47427;51.976;5.326;2023-11-21T00:21:32;46.85;;;19.35;;
45402;SDS011;47427;51.976;5.326;2023-11-21T00:24:34;32.13;;;16.17;;
45402;SDS011;47427;51.976;5.326;2023-11-21T00:27:37;32.03;;;16.20;;
45402;SDS011;47427;51.976;5.326;2023-11-21T00:30:40;33.25;;;16.55;;
45402;SDS011;47427;51.976;5.326;2023-11-21T00:33:43;29.33;;;15.55;;
45402;SDS011;47427;51.976;5.326;2023-11-21T00:36:45;33.63;;;16.85;;
45402;SDS011;47427;51.976;5.326;2023-11-21T00:39:48;32.50;;;15.38;;
45402;SDS011;47427;51.976;5.326;2023-11-21T00:42:51;33.78;;;15.68;;
45402;SDS011;47427;51.976;5.326;2023-11-21T00:45:53;32.33;;;15.30;;
45402;SDS011;47427;51.976;5.326;2023-11-21T00:48:56;26.40;;;15.32;;
45402;SDS011;47427;51.976;5.326;2023-11-21T00:51:58;32.60;;;15.95;;
45402;SDS011;47427;51.976;5.326;2023-11-21T00:55:01;27.48;;;15.10;;
45402;SDS011;47427;51.976;5.326;2023-11-21T00:58:05;39.50;;;16.80;;
45402;SDS011;47427;51.976;5.326;2023-11-21T01:01:09;36.70;;;16.08;;
45402;SDS011;47427;51.976;5.326;2023-11-21T01:04:10;22.40;;;13.30;;
45402;SDS011;47427;51.976;5.326;2023-11-21T01:07:13;38.92;;;15.23;;
45402;SDS011;47427;51.976;5.326;2023-11-21T01:10:16;34.90;;;16.25;;
45402;SDS011;47427;51.976;5.326;2023-11-21T01:13:19;32.65;;;15.15;;
45402;SDS011;47427;51.976;5.326;2023-11-21T01:16:21;42.03;;;17.15;;
45402;SDS011;47427;51.976;5.326;2023-11-21T01:19:24;42.42;;;16.77;;
45402;SDS011;47427;51.976;5.326;2023-11-21T01:22:26;55.22;;;18.00;;
45402;SDS011;47427;51.976;5.326;2023-11-21T01:25:30;52.25;;;16.77;;
45402;SDS011;47427;51.976;5.326;2023-11-21T01:28:34;52.97;;;16.73;;
45402;SDS011;47427;51.976;5.326;2023-11-21T01:31:37;50.25;;;20.05;;
45402;SDS011;47427;51.976;5.326;2023-11-21T01:34:40;63.38;;;21.17;;
45402;SDS011;47427;51.976;5.326;2023-11-21T01:37:43;166.95;;;29.27;;
45402;SDS011;47427;51.976;5.326;2023-11-21T01:40:45;49.40;;;20.10;;
45402;SDS011;47427;51.976;5.326;2023-11-21T01:43:46;45.47;;;18.52;;
45402;SDS011;47427;51.976;5.326;2023-11-21T01:46:50;52.97;;;19.17;;
45402;SDS011;47427;51.976;5.326;2023-11-21T01:49:53;38.70;;;18.08;;
45402;SDS011;47427;51.976;5.326;2023-11-21T01:52:56;53.38;;;20.65;;
45402;SDS011;47427;51.976;5.326;2023-11-21T01:55:58;39.67;;;17.95;;
45402;SDS011;47427;51.976;5.326;2023-11-21T01:59:01;39.00;;;16.63;;
45402;SDS011;47427;51.976;5.326;2023-11-21T02:02:05;49.63;;;19.40;;
45402;SDS011;47427;51.976;5.326;2023-11-21T02:05:11;40.67;;;17.52;;
45402;SDS011;47427;51.976;5.326;2023-11-21T02:08:15;46.25;;;21.08;;
45402;SDS011;47427;51.976;5.326;2023-11-21T02:11:18;48.90;;;20.00;;
45402;SDS011;47427;51.976;5.326;2023-11-21T02:14:21;57.05;;;21.08;;
45402;SDS011;47427;51.976;5.326;2023-11-21T02:17:24;76.70;;;25.20;;
45402;SDS011;47427;51.976;5.326;2023-11-21T02:20:28;30.30;;;14.30;;
45402;SDS011;47427;51.976;5.326;2023-11-21T02:23:31;32.92;;;14.80;;
45402;SDS011;47427;51.976;5.326;2023-11-21T02:26:35;31.95;;;13.85;;
45402;SDS011;47427;51.976;5.326;2023-11-21T02:29:38;33.85;;;15.57;;
45402;SDS011;47427;51.976;5.326;2023-11-21T02:32:39;28.33;;;14.32;;
45402;SDS011;47427;51.976;5.326;2023-11-21T02:35:44;40.55;;;16.05;;
45402;SDS011;47427;51.976;5.326;2023-11-21T02:38:48;45.22;;;16.33;;
45402;SDS011;47427;51.976;5.326;2023-11-21T02:41:50;52.05;;;18.02;;
45402;SDS011;47427;51.976;5.326;2023-11-21T02:44:52;32.92;;;15.27;;
45402;SDS011;47427;51.976;5.326;2023-11-21T02:47:55;34.75;;;16.50;;
45402;SDS011;47427;51.976;5.326;2023-11-21T02:50:58;42.03;;;15.57;;
45402;SDS011;47427;51.976;5.326;2023-11-21T02:54:01;37.40;;;16.30;;
45402;SDS011;47427;51.976;5.326;2023-11-21T02:57:09;35.33;;;16.05;;
45402;SDS011;47427;51.976;5.326;2023-11-21T03:00:11;31.13;;;15.45;;
45402;SDS011;47427;51.976;5.326;2023-11-21T03:03:17;39.13;;;18.00;;
45402;SDS011;47427;51.976;5.326;2023-11-21T03:06:21;37.25;;;17.25;;
45402;SDS011;47427;51.976;5.326;2023-11-21T03:09:24;28.58;;;15.75;;
45402;SDS011;47427;51.976;5.326;2023-11-21T03:12:26;31.30;;;14.77;;
45402;SDS011;47427;51.976;5.326;2023-11-21T03:15:29;39.13;;;17.48;;
45402;SDS011;47427;51.976;5.326;2023-11-21T03:18:33;30.33;;;15.40;;
45402;SDS011;47427;51.976;5.326;2023-11-21T03:21:36;32.58;;;15.68;;
45402;SDS011;47427;51.976;5.326;2023-11-21T03:24:39;24.83;;;13.80;;
45402;SDS011;47427;51.976;5.326;2023-11-21T03:27:41;24.90;;;13.13;;
45402;SDS011;47427;51.976;5.326;2023-11-21T03:30:46;26.90;;;14.67;;
45402;SDS011;47427;51.976;5.326;2023-11-21T03:33:48;28.88;;;14.73;;
45402;SDS011;47427;51.976;5.326;2023-11-21T03:36:52;32.20;;;14.90;;
45402;SDS011;47427;51.976;5.326;2023-11-21T03:39:56;28.50;;;13.73;;
45402;SDS011;47427;51.976;5.326;2023-11-21T03:42:59;27.75;;;15.18;;
45402;SDS011;47427;51.976;5.326;2023-11-21T03:46:01;32.67;;;16.38;;
45402;SDS011;47427;51.976;5.326;2023-11-21T03:49:03;25.50;;;14.90;;
45402;SDS011;47427;51.976;5.326;2023-11-21T03:52:06;29.92;;;15.73;;
45402;SDS011;47427;51.976;5.326;2023-11-21T03:55:09;40.55;;;16.08;;
45402;SDS011;47427;51.976;5.326;2023-11-21T03:58:15;27.85;;;13.90;;
45402;SDS011;47427;51.976;5.326;2023-11-21T04:01:23;38.55;;;17.67;;
45402;SDS011;47427;51.976;5.326;2023-11-21T04:04:26;26.52;;;14.00;;
45402;SDS011;47427;51.976;5.326;2023-11-21T04:07:29;25.35;;;14.40;;
45402;SDS011;47427;51.976;5.326;2023-11-21T04:10:32;29.83;;;15.10;;
45402;SDS011;47427;51.976;5.326;2023-11-21T04:13:34;40.47;;;15.77;;
45402;SDS011;47427;51.976;5.326;2023-11-21T04:16:37;25.33;;;13.23;;
45402;SDS011;47427;51.976;5.326;2023-11-21T04:19:40;33.85;;;14.93;;
45402;SDS011;47427;51.976;5.326;2023-11-21T04:22:43;30.58;;;14.48;;
45402;SDS011;47427;51.976;5.326;2023-11-21T04:25:45;28.02;;;13.65;;
45402;SDS011;47427;51.976;5.326;2023-11-21T04:28:48;25.88;;;13.20;;
45402;SDS011;47427;51.976;5.326;2023-11-21T04:31:51;25.90;;;13.73;;
45402;SDS011;47427;51.976;5.326;2023-11-21T04:34:54;26.85;;;12.80;;
45402;SDS011;47427;51.976;5.326;2023-11-21T04:37:56;24.23;;;12.93;;
45402;SDS011;47427;51.976;5.326;2023-11-21T04:40:59;29.88;;;13.43;;
45402;SDS011;47427;51.976;5.326;2023-11-21T04:44:02;24.02;;;12.68;;
45402;SDS011;47427;51.976;5.326;2023-11-21T04:47:04;23.23;;;12.50;;
45402;SDS011;47427;51.976;5.326;2023-11-21T04:50:06;21.10;;;12.52;;
45402;SDS011;47427;51.976;5.326;2023-11-21T04:53:09;26.38;;;13.05;;
45402;SDS011;47427;51.976;5.326;2023-11-21T04:59:18;24.85;;;13.00;;
45402;SDS011;47427;51.976;5.326;2023-11-21T05:02:19;21.55;;;12.48;;
45402;SDS011;47427;51.976;5.326;2023-11-21T05:05:23;27.33;;;12.50;;
45402;SDS011;47427;51.976;5.326;2023-11-21T05:08:26;24.58;;;12.13;;
45402;SDS011;47427;51.976;5.326;2023-11-21T05:11:29;24.55;;;11.75;;
45402;SDS011;47427;51.976;5.326;2023-11-21T05:14:30;23.95;;;13.75;;
45402;SDS011;47427;51.976;5.326;2023-11-21T05:17:33;23.35;;;12.32;;
45402;SDS011;47427;51.976;5.326;2023-11-21T05:20:37;22.83;;;11.73;;
45402;SDS011;47427;51.976;5.326;2023-11-21T05:23:40;28.60;;;14.27;;
45402;SDS011;47427;51.976;5.326;2023-11-21T05:26:41;20.48;;;12.77;;
45402;SDS011;47427;51.976;5.326;2023-11-21T05:29:44;30.38;;;14.50;;
45402;SDS011;47427;51.976;5.326;2023-11-21T05:32:47;27.05;;;13.43;;
45402;SDS011;47427;51.976;5.326;2023-11-21T05:35:51;22.58;;;13.70;;
45402;SDS011;47427;51.976;5.326;2023-11-21T05:38:54;35.90;;;14.98;;
45402;SDS011;47427;51.976;5.326;2023-11-21T05:41:57;34.13;;;14.20;;
45402;SDS011;47427;51.976;5.326;2023-11-21T05:45:01;29.95;;;14.57;;
45402;SDS011;47427;51.976;5.326;2023-11-21T05:48:13;43.75;;;16.48;;
45402;SDS011;47427;51.976;5.326;2023-11-21T05:51:16;39.80;;;16.10;;
45402;SDS011;47427;51.976;5.326;2023-11-21T05:54:19;33.30;;;15.05;;
45402;SDS011;47427;51.976;5.326;2023-11-21T05:57:22;42.08;;;17.77;;
45402;SDS011;47427;51.976;5.326;2023-11-21T06:00:25;33.90;;;16.10;;
45402;SDS011;47427;51.976;5.326;2023-11-21T06:03:27;34.50;;;14.55;;
45402;SDS011;47427;51.976;5.326;2023-11-21T06:06:30;44.20;;;17.92;;
45402;SDS011;47427;51.976;5.326;2023-11-21T06:09:33;40.40;;;16.73;;
45402;SDS011;47427;51.976;5.326;2023-11-21T06:12:37;37.00;;;16.13;;
45402;SDS011;47427;51.976;5.326;2023-11-21T06:15:40;40.15;;;15.82;;
45402;SDS011;47427;51.976;5.326;2023-11-21T06:18:41;32.10;;;16.02;;
45402;SDS011;47427;51.976;5.326;2023-11-21T06:21:45;41.97;;;17.30;;
45402;SDS011;47427;51.976;5.326;2023-11-21T06:24:49;43.92;;;15.88;;
45402;SDS011;47427;51.976;5.326;2023-11-21T06:27:52;34.30;;;16.90;;
45402;SDS011;47427;51.976;5.326;2023-11-21T06:30:54;35.72;;;14.93;;
45402;SDS011;47427;51.976;5.326;2023-11-21T06:33:57;40.15;;;15.38;;
45402;SDS011;47427;51.976;5.326;2023-11-21T06:37:01;30.67;;;14.45;;
45402;SDS011;47427;51.976;5.326;2023-11-21T06:40:04;31.45;;;15.27;;
45402;SDS011;47427;51.976;5.326;2023-11-21T06:43:07;39.40;;;16.00;;
45402;SDS011;47427;51.976;5.326;2023-11-21T06:46:10;30.10;;;15.07;;
45402;SDS011;47427;51.976;5.326;2023-11-21T06:49:13;35.38;;;14.90;;
45402;SDS011;47427;51.976;5.326;2023-11-21T06:52:16;26.85;;;16.55;;
45402;SDS011;47427;51.976;5.326;2023-11-21T06:55:18;42.88;;;15.90;;
45402;SDS011;47427;51.976;5.326;2023-11-21T06:58:21;41.25;;;14.98;;
45402;SDS011;47427;51.976;5.326;2023-11-21T07:01:24;37.38;;;16.80;;
45402;SDS011;47427;51.976;5.326;2023-11-21T07:04:27;36.17;;;15.20;;
45402;SDS011;47427;51.976;5.326;2023-11-21T07:07:28;34.28;;;15.70;;
45402;SDS011;47427;51.976;5.326;2023-11-21T07:10:31;35.20;;;14.25;;
45402;SDS011;47427;51.976;5.326;2023-11-21T07:13:34;34.17;;;15.30;;
45402;SDS011;47427;51.976;5.326;2023-11-21T07:16:37;32.88;;;13.48;;
45402;SDS011;47427;51.976;5.326;2023-11-21T07:19:39;28.55;;;14.48;;
45402;SDS011;47427;51.976;5.326;2023-11-21T07:22:43;41.88;;;16.30;;
45402;SDS011;47427;51.976;5.326;2023-11-21T07:25:46;30.42;;;13.95;;
45402;SDS011;47427;51.976;5.326;2023-11-21T07:28:49;28.67;;;14.73;;
45402;SDS011;47427;51.976;5.326;2023-11-21T07:31:52;32.92;;;14.75;;
45402;SDS011;47427;51.976;5.326;2023-11-21T07:34:55;35.47;;;15.32;;
45402;SDS011;47427;51.976;5.326;2023-11-21T07:37:59;31.77;;;13.48;;
45402;SDS011;47427;51.976;5.326;2023-11-21T07:41:02;30.23;;;13.88;;
45402;SDS011;47427;51.976;5.326;2023-11-21T07:44:05;28.95;;;13.63;;
45402;SDS011;47427;51.976;5.326;2023-11-21T07:47:07;33.70;;;13.68;;
45402;SDS011;47427;51.976;5.326;2023-11-21T07:50:11;26.23;;;13.20;;
45402;SDS011;47427;51.976;5.326;2023-11-21T07:53:15;33.80;;;13.33;;
45402;SDS011;47427;51.976;5.326;2023-11-21T07:56:18;29.98;;;13.30;;
45402;SDS011;47427;51.976;5.326;2023-11-21T07:59:19;25.20;;;12.18;;
45402;SDS011;47427;51.976;5.326;2023-11-21T08:02:23;26.20;;;12.18;;
45402;SDS011;47427;51.976;5.326;2023-11-21T08:05:26;21.88;;;11.05;;
45402;SDS011;47427;51.976;5.326;2023-11-21T08:08:29;24.27;;;11.45;;
45402;SDS011;47427;51.976;5.326;2023-11-21T08:11:30;28.45;;;12.27;;
45402;SDS011;47427;51.976;5.326;2023-11-21T08:14:35;25.17;;;12.10;;
45402;SDS011;47427;51.976;5.326;2023-11-21T08:17:40;23.80;;;12.70;;
45402;SDS011;47427;51.976;5.326;2023-11-21T08:20:44;31.38;;;16.27;;
45402;SDS011;47427;51.976;5.326;2023-11-21T08:23:48;21.15;;;13.85;;
45402;SDS011;47427;51.976;5.326;2023-11-21T08:26:55;33.88;;;14.02;;
45402;SDS011;47427;51.976;5.326;2023-11-21T08:29:58;19.02;;;12.18;;
45402;SDS011;47427;51.976;5.326;2023-11-21T08:33:01;31.92;;;13.63;;
45402;SDS011;47427;51.976;5.326;2023-11-21T08:36:10;40.15;;;13.38;;
45402;SDS011;47427;51.976;5.326;2023-11-21T08:39:13;25.77;;;11.95;;
45402;SDS011;47427;51.976;5.326;2023-11-21T08:42:18;22.88;;;12.05;;
45402;SDS011;47427;51.976;5.326;2023-11-21T08:45:22;27.23;;;11.05;;
45402;SDS011;47427;51.976;5.326;2023-11-21T08:48:23;26.83;;;11.60;;
45402;SDS011;47427;51.976;5.326;2023-11-21T08:51:26;26.77;;;9.93;;
45402;SDS011;47427;51.976;5.326;2023-11-21T08:54:29;28.45;;;10.60;;
45402;SDS011;47427;51.976;5.326;2023-11-21T08:57:36;20.60;;;10.57;;
45402;SDS011;47427;51.976;5.326;2023-11-21T09:00:39;16.63;;;8.75;;
45402;SDS011;47427;51.976;5.326;2023-11-21T09:03:42;20.83;;;9.63;;
45402;SDS011;47427;51.976;5.326;2023-11-21T09:06:45;21.23;;;9.85;;
45402;SDS011;47427;51.976;5.326;2023-11-21T09:09:48;24.17;;;10.38;;
45402;SDS011;47427;51.976;5.326;2023-11-21T09:12:50;25.00;;;9.98;;
45402;SDS011;47427;51.976;5.326;2023-11-21T09:15:54;20.15;;;9.90;;
45402;SDS011;47427;51.976;5.326;2023-11-21T09:18:57;14.35;;;8.95;;
45402;SDS011;47427;51.976;5.326;2023-11-21T09:22:00;13.90;;;8.75;;
45402;SDS011;47427;51.976;5.326;2023-11-21T09:25:01;21.00;;;10.68;;
45402;SDS011;47427;51.976;5.326;2023-11-21T09:31:10;27.00;;;11.63;;
45402;SDS011;47427;51.976;5.326;2023-11-21T09:34:12;18.80;;;10.35;;
45402;SDS011;47427;51.976;5.326;2023-11-21T09:37:14;20.92;;;10.88;;
45402;SDS011;47427;51.976;5.326;2023-11-21T09:40:17;23.27;;;11.80;;
45402;SDS011;47427;51.976;5.326;2023-11-21T09:43:24;29.10;;;11.88;;
45402;SDS011;47427;51.976;5.326;2023-11-21T09:46:30;19.10;;;10.98;;
45402;SDS011;47427;51.976;5.326;2023-11-21T09:49:32;21.45;;;9.65;;
45402;SDS011;47427;51.976;5.326;2023-11-21T09:55:57;22.58;;;10.40;;
45402;SDS011;47427;51.976;5.326;2023-11-21T09:59:02;19.73;;;10.20;;
45402;SDS011;47427;51.976;5.326;2023-11-21T10:02:07;14.68;;;9.38;;
45402;SDS011;47427;51.976;5.326;2023-11-21T10:05:15;23.35;;;10.90;;
45402;SDS011;47427;51.976;5.326;2023-11-21T10:08:19;17.23;;;10.57;;
45402;SDS011;47427;51.976;5.326;2023-11-21T10:11:25;22.13;;;12.30;;
45402;SDS011;47427;51.976;5.326;2023-11-21T10:14:28;21.08;;;11.27;;
45402;SDS011;47427;51.976;5.326;2023-11-21T10:17:31;17.77;;;11.82;;
45402;SDS011;47427;51.976;5.326;2023-11-21T10:20:44;19.00;;;11.60;;
45402;SDS011;47427;51.976;5.326;2023-11-21T10:23:54;27.70;;;14.15;;
45402;SDS011;47427;51.976;5.326;2023-11-21T10:26:56;24.92;;;13.82;;
45402;SDS011;47427;51.976;5.326;2023-11-21T10:30:00;27.35;;;15.73;;
45402;SDS011;47427;51.976;5.326;2023-11-21T10:33:07;28.75;;;15.02;;
45402;SDS011;47427;51.976;5.326;2023-11-21T10:36:10;28.98;;;15.65;;
45402;SDS011;47427;51.976;5.326;2023-11-21T10:39:18;24.55;;;14.23;;
45402;SDS011;47427;51.976;5.326;2023-11-21T10:42:25;21.77;;;13.77;;
45402;SDS011;47427;51.976;5.326;2023-11-21T10:45:29;30.73;;;14.73;;
45402;SDS011;47427;51.976;5.326;2023-11-21T10:48:31;32.70;;;15.30;;
45402;SDS011;47427;51.976;5.326;2023-11-21T10:51:35;28.65;;;14.90;;
45402;SDS011;47427;51.976;5.326;2023-11-21T10:54:38;26.83;;;13.88;;
45402;SDS011;47427;51.976;5.326;2023-11-21T10:57:41;23.08;;;13.57;;
45402;SDS011;47427;51.976;5.326;2023-11-21T11:00:44;20.88;;;12.10;;
45402;SDS011;47427;51.976;5.326;2023-11-21T11:03:47;20.40;;;12.77;;
45402;SDS011;47427;51.976;5.326;2023-11-21T11:06:54;18.27;;;11.05;;
45402;SDS011;47427;51.976;5.326;2023-11-21T11:09:59;21.90;;;11.55;;
45402;SDS011;47427;51.976;5.326;2023-11-21T11:13:02;20.58;;;10.73;;
45402;SDS011;47427;51.976;5.326;2023-11-21T11:16:05;15.30;;;8.15;;
45402;SDS011;47427;51.976;5.326;2023-11-21T11:19:12;11.73;;;8.10;;
45402;SDS011;47427;51.976;5.326;2023-11-21T11:22:29;14.55;;;9.13;;
45402;SDS011;47427;51.976;5.326;2023-11-21T11:26:24;17.98;;;10.95;;
45402;SDS011;47427;51.976;5.326;2023-11-21T11:29:50;18.27;;;11.13;;
45402;SDS011;47427;51.976;5.326;2023-11-21T11:36:42;15.40;;;10.30;;
45402;SDS011;47427;51.976;5.326;2023-11-21T11:39:49;21.95;;;11.95;;
45402;SDS011;47427;51.976;5.326;2023-11-21T11:42:57;17.83;;;10.00;;
45402;SDS011;47427;51.976;5.326;2023-11-21T11:46:04;20.05;;;11.23;;
45402;SDS011;47427;51.976;5.326;2023-11-21T11:49:06;19.50;;;10.68;;
45402;SDS011;47427;51.976;5.326;2023-11-21T11:55:44;18.83;;;10.35;;
45402;SDS011;47427;51.976;5.326;2023-11-21T11:58:47;24.67;;;11.98;;
45402;SDS011;47427;51.976;5.326;2023-11-21T12:01:51;23.95;;;12.27;;
45402;SDS011;47427;51.976;5.326;2023-11-21T12:04:55;21.00;;;11.20;;
45402;SDS011;47427;51.976;5.326;2023-11-21T12:07:59;26.20;;;12.75;;
45402;SDS011;47427;51.976;5.326;2023-11-21T12:11:05;20.92;;;12.30;;
45402;SDS011;47427;51.976;5.326;2023-11-21T12:14:06;27.90;;;14.07;;
45402;SDS011;47427;51.976;5.326;2023-11-21T12:17:09;20.38;;;12.10;;
45402;SDS011;47427;51.976;5.326;2023-11-21T12:20:13;18.73;;;12.10;;
45402;SDS011;47427;51.976;5.326;2023-11-21T12:23:16;23.13;;;12.13;;
45402;SDS011;47427;51.976;5.326;2023-11-21T12:26:18;27.27;;;12.77;;
45402;SDS011;47427;51.976;5.326;2023-11-21T12:29:21;20.95;;;11.85;;
45402;SDS011;47427;51.976;5.326;2023-11-21T12:32:23;21.73;;;12.18;;
45402;SDS011;47427;51.976;5.326;2023-11-21T12:35:28;21.05;;;12.30;;
45402;SDS011;47427;51.976;5.326;2023-11-21T12:38:34;21.38;;;11.73;;
45402;SDS011;47427;51.976;5.326;2023-11-21T12:41:37;19.67;;;11.93;;
45402;SDS011;47427;51.976;5.326;2023-11-21T12:44:40;15.80;;;10.63;;
45402;SDS011;47427;51.976;5.326;2023-11-21T12:47:47;18.73;;;11.02;;
45402;SDS011;47427;51.976;5.326;2023-11-21T12:50:55;28.42;;;12.60;;
45402;SDS011;47427;51.976;5.326;2023-11-21T12:54:02;18.05;;;11.40;;
45402;SDS011;47427;51.976;5.326;2023-11-21T12:57:05;19.65;;;11.70;;
45402;SDS011;47427;51.976;5.326;2023-11-21T13:00:10;19.48;;;11.75;;
45402;SDS011;47427;51.976;5.326;2023-11-21T13:03:16;22.33;;;12.02;;
45402;SDS011;47427;51.976;5.326;2023-11-21T13:06:21;15.55;;;10.60;;
45402;SDS011;47427;51.976;5.326;2023-11-21T13:09:26;18.00;;;10.98;;
45402;SDS011;47427;51.976;5.326;2023-11-21T13:12:30;17.48;;;10.57;;
45402;SDS011;47427;51.976;5.326;2023-11-21T13:15:38;18.08;;;10.85;;
45402;SDS011;47427;51.976;5.326;2023-11-21T13:18:43;18.70;;;11.85;;
45402;SDS011;47427;51.976;5.326;2023-11-21T13:21:46;23.02;;;11.82;;
45402;SDS011;47427;51.976;5.326;2023-11-21T13:24:49;21.48;;;11.00;;
45402;SDS011;47427;51.976;5.326;2023-11-21T13:27:52;26.90;;;13.20;;
45402;SDS011;47427;51.976;5.326;2023-11-21T13:30:57;21.75;;;12.25;;
45402;SDS011;47427;51.976;5.326;2023-11-21T13:34:03;21.90;;;12.40;;
45402;SDS011;47427;51.976;5.326;2023-11-21T13:37:07;20.02;;;11.57;;
45402;SDS011;47427;51.976;5.326;2023-11-21T13:40:10;21.05;;;13.23;;
45402;SDS011;47427;51.976;5.326;2023-11-21T13:43:17;20.08;;;11.90;;
45402;SDS011;47427;51.976;5.326;2023-11-21T13:46:22;19.75;;;12.18;;
45402;SDS011;47427;51.976;5.326;2023-11-21T13:49:25;20.05;;;11.77;;
45402;SDS011;47427;51.976;5.326;2023-11-21T13:52:28;20.05;;;12.25;;
45402;SDS011;47427;51.976;5.326;2023-11-21T13:55:35;18.90;;;11.70;;
45402;SDS011;47427;51.976;5.326;2023-11-21T13:58:36;18.45;;;12.32;;
45402;SDS011;47427;51.976;5.326;2023-11-21T14:01:54;17.77;;;11.40;;
45402;SDS011;47427;51.976;5.326;2023-11-21T14:04:59;23.75;;;11.40;;
45402;SDS011;47427;51.976;5.326;2023-11-21T14:08:08;18.77;;;11.27;;
45402;SDS011;47427;51.976;5.326;2023-11-21T14:11:14;13.45;;;9.52;;
45402;SDS011;47427;51.976;5.326;2023-11-21T14:14:20;16.73;;;10.20;;
45402;SDS011;47427;51.976;5.326;2023-11-21T14:17:26;16.90;;;8.55;;
45402;SDS011;47427;51.976;5.326;2023-11-21T14:20:29;12.90;;;7.45;;
45402;SDS011;47427;51.976;5.326;2023-11-21T14:23:32;10.65;;;6.63;;
45402;SDS011;47427;51.976;5.326;2023-11-21T14:26:39;8.60;;;6.00;;
45402;SDS011;47427;51.976;5.326;2023-11-21T14:29:45;16.60;;;6.80;;
45402;SDS011;47427;51.976;5.326;2023-11-21T14:32:48;13.25;;;7.22;;
45402;SDS011;47427;51.976;5.326;2023-11-21T14:35:53;13.13;;;7.10;;
45402;SDS011;47427;51.976;5.326;2023-11-21T14:38:57;14.48;;;8.55;;
45402;SDS011;47427;51.976;5.326;2023-11-21T14:42:00;16.77;;;8.30;;
45402;SDS011;47427;51.976;5.326;2023-11-21T14:45:05;15.32;;;8.43;;
45402;SDS011;47427;51.976;5.326;2023-11-21T14:48:07;21.05;;;12.85;;
45402;SDS011;47427;51.976;5.326;2023-11-21T14:51:16;22.83;;;13.43;;
45402;SDS011;47427;51.976;5.326;2023-11-21T14:54:50;23.70;;;13.73;;
45402;SDS011;47427;51.976;5.326;2023-11-21T14:58:06;27.88;;;14.30;;
45402;SDS011;47427;51.976;5.326;2023-11-21T15:01:13;27.20;;;15.52;;
45402;SDS011;47427;51.976;5.326;2023-11-21T15:04:14;29.70;;;15.63;;
45402;SDS011;47427;51.976;5.326;2023-11-21T15:07:30;28.90;;;16.48;;
45402;SDS011;47427;51.976;5.326;2023-11-21T15:10:33;30.98;;;17.08;;
45402;SDS011;47427;51.976;5.326;2023-11-21T15:13:48;32.00;;;18.42;;
45402;SDS011;47427;51.976;5.326;2023-11-21T15:16:54;35.30;;;18.08;;
45402;SDS011;47427;51.976;5.326;2023-11-21T15:20:02;29.48;;;17.13;;
45402;SDS011;47427;51.976;5.326;2023-11-21T15:23:10;32.03;;;17.88;;
45402;SDS011;47427;51.976;5.326;2023-11-21T15:26:13;31.45;;;18.25;;
45402;SDS011;47427;51.976;5.326;2023-11-21T15:29:17;35.53;;;19.38;;
45402;SDS011;47427;51.976;5.326;2023-11-21T15:32:24;34.83;;;19.00;;
45402;SDS011;47427;51.976;5.326;2023-11-21T15:35:28;33.07;;;18.67;;
45402;SDS011;47427;51.976;5.326;2023-11-21T15:38:30;38.65;;;21.73;;
45402;SDS011;47427;51.976;5.326;2023-11-21T15:41:32;35.22;;;18.73;;
45402;SDS011;47427;51.976;5.326;2023-11-21T15:44:36;34.92;;;19.50;;
45402;SDS011;47427;51.976;5.326;2023-11-21T15:47:39;37.35;;;21.60;;
45402;SDS011;47427;51.976;5.326;2023-11-21T15:50:41;43.25;;;22.08;;
45402;SDS011;47427;51.976;5.326;2023-11-21T15:53:43;40.15;;;19.77;;
45402;SDS011;47427;51.976;5.326;2023-11-21T15:56:49;33.17;;;19.75;;
45402;SDS011;47427;51.976;5.326;2023-11-21T15:59:59;26.73;;;16.77;;
45402;SDS011;47427;51.976;5.326;2023-11-21T16:03:01;30.77;;;18.20;;
45402;SDS011;47427;51.976;5.326;2023-11-21T16:06:03;34.15;;;18.73;;
45402;SDS011;47427;51.976;5.326;2023-11-21T16:09:07;33.90;;;19.10;;
45402;SDS011;47427;51.976;5.326;2023-11-21T16:12:17;29.85;;;17.92;;
45402;SDS011;47427;51.976;5.326;2023-11-21T16:15:20;32.92;;;18.50;;
45402;SDS011;47427;51.976;5.326;2023-11-21T16:18:23;35.38;;;19.50;;
45402;SDS011;47427;51.976;5.326;2023-11-21T16:21:25;32.47;;;18.52;;
45402;SDS011;47427;51.976;5.326;2023-11-21T16:24:28;25.42;;;14.63;;
45402;SDS011;47427;51.976;5.326;2023-11-21T16:27:32;20.98;;;14.10;;
45402;SDS011;47427;51.976;5.326;2023-11-21T16:30:33;21.73;;;13.40;;
45402;SDS011;47427;51.976;5.326;2023-11-21T16:33:37;19.10;;;13.43;;
45402;SDS011;47427;51.976;5.326;2023-11-21T16:36:41;16.27;;;11.80;;
45402;SDS011;47427;51.976;5.326;2023-11-21T16:39:44;20.90;;;13.65;;
45402;SDS011;47427;51.976;5.326;2023-11-21T16:42:48;18.83;;;14.13;;
45402;SDS011;47427;51.976;5.326;2023-11-21T16:45:51;19.63;;;14.18;;
45402;SDS011;47427;51.976;5.326;2023-11-21T16:48:54;18.20;;;13.00;;
45402;SDS011;47427;51.976;5.326;2023-11-21T16:51:57;19.75;;;13.77;;
45402;SDS011;47427;51.976;5.326;2023-11-21T16:55:00;23.88;;;13.80;;
45402;SDS011;47427;51.976;5.326;2023-11-21T16:58:03;22.25;;;14.48;;
45402;SDS011;47427;51.976;5.326;2023-11-21T17:01:07;20.38;;;14.20;;
45402;SDS011;47427;51.976;5.326;2023-11-21T17:04:10;21.23;;;14.50;;
45402;SDS011;47427;51.976;5.326;2023-11-21T17:07:14;19.95;;;13.80;;
45402;SDS011;47427;51.976;5.326;2023-11-21T17:10:18;22.87;;;14.53;;
45402;SDS011;47427;51.976;5.326;2023-11-21T17:13:22;22.67;;;13.13;;
45402;SDS011;47427;51.976;5.326;2023-11-21T17:16:25;22.52;;;15.00;;
45402;SDS011;47427;51.976;5.326;2023-11-21T17:19:28;18.00;;;13.70;;
45402;SDS011;47427;51.976;5.326;2023-11-21T17:22:32;24.60;;;16.30;;
45402;SDS011;47427;51.976;5.326;2023-11-21T17:25:36;23.63;;;14.77;;
45402;SDS011;47427;51.976;5.326;2023-11-21T17:28:39;22.35;;;14.27;;
45402;SDS011;47427;51.976;5.326;2023-11-21T17:31:43;20.00;;;14.30;;
45402;SDS011;47427;51.976;5.326;2023-11-21T17:34:45;23.58;;;14.55;;
45402;SDS011;47427;51.976;5.326;2023-11-21T17:37:48;24.33;;;15.85;;
45402;SDS011;47427;51.976;5.326;2023-11-21T17:40:50;21.27;;;15.23;;
45402;SDS011;47427;51.976;5.326;2023-11-21T17:43:54;25.10;;;15.52;;
45402;SDS011;47427;51.976;5.326;2023-11-21T17:46:55;25.02;;;16.20;;
45402;SDS011;47427;51.976;5.326;2023-11-21T17:49:59;24.67;;;15.85;;
45402;SDS011;47427;51.976;5.326;2023-11-21T17:53:02;34.75;;;20.52;;
45402;SDS011;47427;51.976;5.326;2023-11-21T17:56:11;28.27;;;19.02;;
45402;SDS011;47427;51.976;5.326;2023-11-21T17:59:15;32.90;;;18.92;;
45402;SDS011;47427;51.976;5.326;2023-11-21T18:02:18;25.35;;;17.45;;
45402;SDS011;47427;51.976;5.326;2023-11-21T18:05:21;27.13;;;15.30;;
45402;SDS011;47427;51.976;5.326;2023-11-21T18:08:25;22.77;;;14.47;;
45402;SDS011;47427;51.976;5.326;2023-11-21T18:11:27;26.30;;;15.35;;
45402;SDS011;47427;51.976;5.326;2023-11-21T18:14:29;27.25;;;15.48;;